sensor_id;sensor_type;location;lat;lon;timestamp;pressure;altitude;pressure_sealevel;temperature;humidity
36798;BME280;22748;8.426;99.512;2023-01-01T00:01:17;101000.75;;;27.50;61.13
36798;BME280;22748;8.426;99.512;2023-01-01T00:03:49;101003.81;;;27.47;61.46
36798;BME280;22748;8.426;99.512;2023-01-01T00:06:19;101004.88;;;27.46;61.79
36798;BME280;22748;8.426;99.512;2023-01-01T00:08:54;101008.09;;;27.41;61.56
36798;BME280;22748;8.426;99.512;2023-01-01T00:11:37;101016.69;;;27.37;61.99
36798;BME280;22748;8.426;99.512;2023-01-01T00:14:07;101020.59;;;27.34;61.80
36798;BME280;22748;8.426;99.512;2023-01-01T00:16:37;101024.50;;;27.32;62.48
36798;BME280;22748;8.426;99.512;2023-01-01T00:19:09;101034.19;;;27.33;62.01
36798;BME280;22748;8.426;99.512;2023-01-01T00:21:39;101027.81;;;27.34;62.52
36798;BME280;22748;8.426;99.512;2023-01-01T00:24:12;101030.31;;;27.35;62.64
36798;BME280;22748;8.426;99.512;2023-01-01T00:26:48;101027.81;;;27.34;62.87
36798;BME280;22748;8.426;99.512;2023-01-01T00:29:19;101043.91;;;27.34;62.84
36798;BME280;22748;8.426;99.512;2023-01-01T00:31:49;101035.22;;;27.32;62.56
36798;BME280;22748;8.426;99.512;2023-01-01T00:34:21;101048.16;;;27.28;62.85
36798;BME280;22748;8.426;99.512;2023-01-01T00:36:52;101051.06;;;27.26;63.26
36798;BME280;22748;8.426;99.512;2023-01-01T00:39:24;101046.69;;;27.25;63.40
36798;BME280;22748;8.426;99.512;2023-01-01T00:41:55;101053.75;;;27.26;63.11
36798;BME280;22748;8.426;99.512;2023-01-01T00:44:24;101060.75;;;27.27;63.46
36798;BME280;22748;8.426;99.512;2023-01-01T00:46:55;101062.44;;;27.28;63.38
36798;BME280;22748;8.426;99.512;2023-01-01T00:49:24;101060.19;;;27.32;63.70
36798;BME280;22748;8.426;99.512;2023-01-01T00:51:57;101069.69;;;27.35;63.59
36798;BME280;22748;8.426;99.512;2023-01-01T00:54:29;101075.72;;;27.37;63.66
36798;BME280;22748;8.426;99.512;2023-01-01T00:57:00;101076.34;;;27.39;63.80
36798;BME280;22748;8.426;99.512;2023-01-01T00:59:29;101077.00;;;27.41;63.57
36798;BME280;22748;8.426;99.512;2023-01-01T01:02:00;101069.41;;;27.44;63.67
36798;BME280;22748;8.426;99.512;2023-01-01T01:04:29;101078.09;;;27.46;63.83
36798;BME280;22748;8.426;99.512;2023-01-01T01:06:58;101077.72;;;27.49;63.99
36798;BME280;22748;8.426;99.512;2023-01-01T01:09:32;101087.88;;;27.54;63.48
36798;BME280;22748;8.426;99.512;2023-01-01T01:12:02;101089.16;;;27.58;63.55
36798;BME280;22748;8.426;99.512;2023-01-01T01:14:32;101084.63;;;27.59;64.10
36798;BME280;22748;8.426;99.512;2023-01-01T01:17:02;101095.81;;;27.62;64.23
36798;BME280;22748;8.426;99.512;2023-01-01T01:19:32;101105.56;;;27.63;63.80
36798;BME280;22748;8.426;99.512;2023-01-01T01:32:01;101109.94;;;27.71;63.96
36798;BME280;22748;8.426;99.512;2023-01-01T01:34:30;101119.47;;;27.74;63.33
36798;BME280;22748;8.426;99.512;2023-01-01T01:37:01;101121.78;;;27.77;63.69
36798;BME280;22748;8.426;99.512;2023-01-01T01:39:31;101121.41;;;27.80;63.51
36798;BME280;22748;8.426;99.512;2023-01-01T01:42:02;101128.25;;;27.82;62.88
36798;BME280;22748;8.426;99.512;2023-01-01T01:44:51;101133.44;;;27.84;63.03
36798;BME280;22748;8.426;99.512;2023-01-01T01:47:30;101124.19;;;27.86;62.71
36798;BME280;22748;8.426;99.512;2023-01-01T01:50:05;101125.28;;;27.92;62.08
36798;BME280;22748;8.426;99.512;2023-01-01T01:52:51;101125.53;;;27.97;62.16
36798;BME280;22748;8.426;99.512;2023-01-01T01:55:51;101127.81;;;28.00;62.18
36798;BME280;22748;8.426;99.512;2023-01-01T01:58:44;101121.47;;;28.01;62.14
36798;BME280;22748;8.426;99.512;2023-01-01T02:01:37;101125.59;;;28.04;61.79
36798;BME280;22748;8.426;99.512;2023-01-01T02:04:16;101131.03;;;28.10;61.87
36798;BME280;22748;8.426;99.512;2023-01-01T02:10:31;101132.78;;;28.18;61.67
36798;BME280;22748;8.426;99.512;2023-01-01T02:13:06;101138.09;;;28.12;61.23
36798;BME280;22748;8.426;99.512;2023-01-01T02:15:39;101140.56;;;28.13;61.30
36798;BME280;22748;8.426;99.512;2023-01-01T02:18:11;101133.41;;;28.20;60.85
36798;BME280;22748;8.426;99.512;2023-01-01T02:20:52;101145.22;;;28.26;60.50
36798;BME280;22748;8.426;99.512;2023-01-01T02:26:41;101148.81;;;28.33;60.30
36798;BME280;22748;8.426;99.512;2023-01-01T02:29:39;101145.75;;;28.36;60.20
36798;BME280;22748;8.426;99.512;2023-01-01T02:32:17;101139.19;;;28.45;60.32
36798;BME280;22748;8.426;99.512;2023-01-01T02:34:56;101148.38;;;28.51;59.87
36798;BME280;22748;8.426;99.512;2023-01-01T02:37:47;101149.25;;;28.58;59.46
36798;BME280;22748;8.426;99.512;2023-01-01T02:40:20;101146.38;;;28.60;60.12
36798;BME280;22748;8.426;99.512;2023-01-01T02:42:54;101147.22;;;28.60;60.29
36798;BME280;22748;8.426;99.512;2023-01-01T02:45:28;101146.88;;;28.70;60.07
36798;BME280;22748;8.426;99.512;2023-01-01T02:48:04;101145.84;;;28.71;58.99
36798;BME280;22748;8.426;99.512;2023-01-01T02:50:35;101158.00;;;28.67;59.43
36798;BME280;22748;8.426;99.512;2023-01-01T02:53:08;101153.09;;;28.70;59.58
36798;BME280;22748;8.426;99.512;2023-01-01T02:55:53;101149.19;;;28.73;59.16
36798;BME280;22748;8.426;99.512;2023-01-01T02:58:33;101147.72;;;28.70;59.51
36798;BME280;22748;8.426;99.512;2023-01-01T03:01:23;101143.34;;;28.69;59.75
36798;BME280;22748;8.426;99.512;2023-01-01T03:04:02;101143.22;;;28.78;59.45
36798;BME280;22748;8.426;99.512;2023-01-01T03:06:41;101138.69;;;28.85;59.17
36798;BME280;22748;8.426;99.512;2023-01-01T03:15:59;101132.22;;;29.01;57.42
36798;BME280;22748;8.426;99.512;2023-01-01T03:18:40;101135.09;;;28.99;57.63
36798;BME280;22748;8.426;99.512;2023-01-01T03:31:10;101111.22;;;29.24;57.34
36798;BME280;22748;8.426;99.512;2023-01-01T03:33:50;101110.84;;;29.27;56.90
36798;BME280;22748;8.426;99.512;2023-01-01T03:36:25;101109.84;;;29.35;56.77
36798;BME280;22748;8.426;99.512;2023-01-01T03:39:01;101105.75;;;29.46;56.56
36798;BME280;22748;8.426;99.512;2023-01-01T03:41:38;101104.31;;;29.50;56.45
36798;BME280;22748;8.426;99.512;2023-01-01T03:44:12;101097.50;;;29.54;56.31
36798;BME280;22748;8.426;99.512;2023-01-01T03:46:45;101098.13;;;29.56;55.36
36798;BME280;22748;8.426;99.512;2023-01-01T03:49:17;101089.63;;;29.59;54.91
36798;BME280;22748;8.426;99.512;2023-01-01T03:52:09;101089.66;;;29.66;54.85
36798;BME280;22748;8.426;99.512;2023-01-01T03:54:47;101085.13;;;29.66;55.34
36798;BME280;22748;8.426;99.512;2023-01-01T03:57:27;101082.00;;;29.63;54.98
36798;BME280;22748;8.426;99.512;2023-01-01T04:00:06;101073.72;;;29.64;54.37
36798;BME280;22748;8.426;99.512;2023-01-01T04:02:48;101072.03;;;29.63;54.69
36798;BME280;22748;8.426;99.512;2023-01-01T04:05:25;101065.22;;;29.61;55.33
36798;BME280;22748;8.426;99.512;2023-01-01T04:08:00;101067.28;;;29.59;54.78
36798;BME280;22748;8.426;99.512;2023-01-01T04:10:33;101061.69;;;29.60;54.22
36798;BME280;22748;8.426;99.512;2023-01-01T04:13:27;101053.84;;;29.65;54.61
36798;BME280;22748;8.426;99.512;2023-01-01T04:16:20;101048.25;;;29.67;54.87
36798;BME280;22748;8.426;99.512;2023-01-01T04:18:50;101043.97;;;29.72;53.86
36798;BME280;22748;8.426;99.512;2023-01-01T04:21:22;101032.97;;;29.74;54.20
36798;BME280;22748;8.426;99.512;2023-01-01T04:23:52;101027.38;;;29.76;53.30
36798;BME280;22748;8.426;99.512;2023-01-01T04:26:22;101018.88;;;29.79;52.74
36798;BME280;22748;8.426;99.512;2023-01-01T04:28:54;101019.75;;;29.86;52.62
36798;BME280;22748;8.426;99.512;2023-01-01T04:31:24;101008.34;;;29.97;52.44
36798;BME280;22748;8.426;99.512;2023-01-01T04:33:54;100999.44;;;29.97;52.06
36798;BME280;22748;8.426;99.512;2023-01-01T04:36:26;100987.63;;;30.04;51.76
36798;BME280;22748;8.426;99.512;2023-01-01T04:38:57;100984.09;;;30.10;51.10
36798;BME280;22748;8.426;99.512;2023-01-01T04:41:28;100993.00;;;30.18;50.98
36798;BME280;22748;8.426;99.512;2023-01-01T04:44:00;100980.94;;;30.27;51.00
36798;BME280;22748;8.426;99.512;2023-01-01T04:46:30;100981.59;;;30.29;51.38
36798;BME280;22748;8.426;99.512;2023-01-01T04:48:59;100972.03;;;30.26;50.33
36798;BME280;22748;8.426;99.512;2023-01-01T04:51:31;100970.81;;;30.22;50.56
36798;BME280;22748;8.426;99.512;2023-01-01T04:54:00;100962.34;;;30.19;50.41
36798;BME280;22748;8.426;99.512;2023-01-01T04:56:31;100952.38;;;30.26;50.65
36798;BME280;22748;8.426;99.512;2023-01-01T04:59:01;100947.44;;;30.29;50.57
36798;BME280;22748;8.426;99.512;2023-01-01T05:01:31;100940.34;;;30.35;50.52
36798;BME280;22748;8.426;99.512;2023-01-01T05:04:01;100934.97;;;30.35;50.49
36798;BME280;22748;8.426;99.512;2023-01-01T05:06:33;100933.09;;;30.35;50.22
36798;BME280;22748;8.426;99.512;2023-01-01T05:16:51;100911.75;;;30.34;49.89
36798;BME280;22748;8.426;99.512;2023-01-01T05:19:24;100912.13;;;30.44;49.53
36798;BME280;22748;8.426;99.512;2023-01-01T05:21:55;100907.56;;;30.51;49.76
36798;BME280;22748;8.426;99.512;2023-01-01T05:24:25;100908.38;;;30.52;50.07
36798;BME280;22748;8.426;99.512;2023-01-01T05:26:56;100902.56;;;30.48;49.75
36798;BME280;22748;8.426;99.512;2023-01-01T05:29:26;100895.09;;;30.50;49.30
36798;BME280;22748;8.426;99.512;2023-01-01T05:31:56;100889.69;;;30.57;49.26
36798;BME280;22748;8.426;99.512;2023-01-01T05:34:27;100878.88;;;30.64;48.12
36798;BME280;22748;8.426;99.512;2023-01-01T05:37:01;100876.38;;;30.69;48.38
36798;BME280;22748;8.426;99.512;2023-01-01T05:39:31;100874.34;;;30.58;48.42
36798;BME280;22748;8.426;99.512;2023-01-01T05:42:00;100873.91;;;30.61;48.57
36798;BME280;22748;8.426;99.512;2023-01-01T05:44:31;100867.06;;;30.65;48.67
36798;BME280;22748;8.426;99.512;2023-01-01T05:47:03;100866.44;;;30.63;49.09
36798;BME280;22748;8.426;99.512;2023-01-01T05:49:33;100857.31;;;30.64;49.77
36798;BME280;22748;8.426;99.512;2023-01-01T05:52:09;100852.31;;;30.67;49.10
36798;BME280;22748;8.426;99.512;2023-01-01T05:54:39;100851.91;;;30.64;48.85
36798;BME280;22748;8.426;99.512;2023-01-01T05:57:10;100845.66;;;30.70;49.26
36798;BME280;22748;8.426;99.512;2023-01-01T05:59:40;100836.50;;;30.78;49.31
36798;BME280;22748;8.426;99.512;2023-01-01T06:02:11;100840.19;;;30.83;48.89
36798;BME280;22748;8.426;99.512;2023-01-01T06:04:39;100831.31;;;30.76;49.47
36798;BME280;22748;8.426;99.512;2023-01-01T06:07:11;100832.72;;;30.85;49.77
36798;BME280;22748;8.426;99.512;2023-01-01T06:09:41;100831.88;;;30.91;48.71
36798;BME280;22748;8.426;99.512;2023-01-01T06:12:11;100826.06;;;30.94;48.87
36798;BME280;22748;8.426;99.512;2023-01-01T06:14:40;100817.38;;;30.92;48.38
36798;BME280;22748;8.426;99.512;2023-01-01T06:17:10;100812.72;;;31.00;48.34
36798;BME280;22748;8.426;99.512;2023-01-01T06:19:40;100806.28;;;31.01;48.17
36798;BME280;22748;8.426;99.512;2023-01-01T06:22:11;100797.78;;;31.04;46.84
36798;BME280;22748;8.426;99.512;2023-01-01T06:24:40;100800.22;;;31.05;47.35
36798;BME280;22748;8.426;99.512;2023-01-01T06:27:11;100800.84;;;31.07;46.94
36798;BME280;22748;8.426;99.512;2023-01-01T06:29:42;100783.56;;;31.15;47.41
36798;BME280;22748;8.426;99.512;2023-01-01T06:32:12;100772.91;;;31.20;47.44
36798;BME280;22748;8.426;99.512;2023-01-01T06:34:42;100778.50;;;31.25;47.04
36798;BME280;22748;8.426;99.512;2023-01-01T06:37:13;100763.56;;;31.23;47.51
36798;BME280;22748;8.426;99.512;2023-01-01T06:39:42;100759.50;;;31.13;47.18
36798;BME280;22748;8.426;99.512;2023-01-01T06:42:13;100752.00;;;31.15;46.47
36798;BME280;22748;8.426;99.512;2023-01-01T06:44:43;100747.44;;;31.16;46.80
36798;BME280;22748;8.426;99.512;2023-01-01T06:47:14;100739.94;;;31.18;47.13
36798;BME280;22748;8.426;99.512;2023-01-01T06:49:45;100739.50;;;31.21;46.70
36798;BME280;22748;8.426;99.512;2023-01-01T06:52:17;100730.81;;;31.19;47.19
36798;BME280;22748;8.426;99.512;2023-01-01T06:54:47;100731.50;;;31.14;46.68
36798;BME280;22748;8.426;99.512;2023-01-01T06:57:17;100725.22;;;31.21;46.19
36798;BME280;22748;8.426;99.512;2023-01-01T06:59:46;100723.69;;;31.25;45.76
36798;BME280;22748;8.426;99.512;2023-01-01T07:02:16;100714.34;;;31.27;45.62
36798;BME280;22748;8.426;99.512;2023-01-01T07:04:45;100709.78;;;31.28;45.79
36798;BME280;22748;8.426;99.512;2023-01-01T07:07:16;100706.19;;;31.34;46.37
36798;BME280;22748;8.426;99.512;2023-01-01T07:09:45;100709.09;;;31.32;46.28
36798;BME280;22748;8.426;99.512;2023-01-01T07:12:15;100702.94;;;31.25;45.65
36798;BME280;22748;8.426;99.512;2023-01-01T07:15:08;100698.31;;;31.32;45.51
36798;BME280;22748;8.426;99.512;2023-01-01T07:18:01;100693.00;;;31.44;45.27
36798;BME280;22748;8.426;99.512;2023-01-01T07:20:32;100688.38;;;31.51;45.23
36798;BME280;22748;8.426;99.512;2023-01-01T07:23:06;100689.06;;;31.47;44.63
36798;BME280;22748;8.426;99.512;2023-01-01T07:25:34;100683.31;;;31.36;44.71
36798;BME280;22748;8.426;99.512;2023-01-01T07:28:04;100686.78;;;31.44;44.97
36798;BME280;22748;8.426;99.512;2023-01-01T07:30:34;100675.69;;;31.52;45.48
36798;BME280;22748;8.426;99.512;2023-01-01T07:33:04;100680.19;;;31.58;45.27
36798;BME280;22748;8.426;99.512;2023-01-01T07:35:34;100684.53;;;31.59;44.65
36798;BME280;22748;8.426;99.512;2023-01-01T07:38:05;100665.19;;;31.62;44.64
36798;BME280;22748;8.426;99.512;2023-01-01T07:40:35;100669.66;;;31.68;44.30
36798;BME280;22748;8.426;99.512;2023-01-01T07:43:05;100663.84;;;31.53;44.12
36798;BME280;22748;8.426;99.512;2023-01-01T07:45:35;100657.00;;;31.50;44.11
36798;BME280;22748;8.426;99.512;2023-01-01T07:48:12;100656.72;;;31.59;43.73
36798;BME280;22748;8.426;99.512;2023-01-01T07:50:43;100660.22;;;31.59;44.02
36798;BME280;22748;8.426;99.512;2023-01-01T07:53:15;100649.00;;;31.62;44.17
36798;BME280;22748;8.426;99.512;2023-01-01T07:55:47;100648.63;;;31.59;44.23
36798;BME280;22748;8.426;99.512;2023-01-01T07:58:18;100639.41;;;31.66;44.02
36798;BME280;22748;8.426;99.512;2023-01-01T08:00:49;100641.84;;;31.68;43.76
36798;BME280;22748;8.426;99.512;2023-01-01T08:03:19;100643.25;;;31.70;43.65
36798;BME280;22748;8.426;99.512;2023-01-01T08:05:52;100634.94;;;31.72;43.10
36798;BME280;22748;8.426;99.512;2023-01-01T08:08:24;100635.63;;;31.67;43.06
36798;BME280;22748;8.426;99.512;2023-01-01T08:10:52;100639.41;;;31.66;43.43
36798;BME280;22748;8.426;99.512;2023-01-01T08:13:21;100628.25;;;31.74;43.22
36798;BME280;22748;8.426;99.512;2023-01-01T08:15:51;100635.44;;;31.81;43.04
36798;BME280;22748;8.426;99.512;2023-01-01T08:18:21;100638.66;;;31.89;42.70
36798;BME280;22748;8.426;99.512;2023-01-01T08:20:50;100641.56;;;31.88;42.38
36798;BME280;22748;8.426;99.512;2023-01-01T08:23:23;100637.25;;;31.68;42.59
36798;BME280;22748;8.426;99.512;2023-01-01T08:25:54;100640.31;;;31.60;42.81
36798;BME280;22748;8.426;99.512;2023-01-01T08:28:30;100640.56;;;31.70;43.09
36798;BME280;22748;8.426;99.512;2023-01-01T08:31:02;100640.63;;;31.82;43.37
36798;BME280;22748;8.426;99.512;2023-01-01T08:33:33;100639.22;;;31.80;43.59
36798;BME280;22748;8.426;99.512;2023-01-01T08:36:04;100639.84;;;31.63;44.27
36798;BME280;22748;8.426;99.512;2023-01-01T08:38:40;100637.00;;;31.58;44.00
36798;BME280;22748;8.426;99.512;2023-01-01T08:41:10;100626.38;;;31.45;44.47
36798;BME280;22748;8.426;99.512;2023-01-01T08:43:40;100631.69;;;31.51;44.48
36798;BME280;22748;8.426;99.512;2023-01-01T08:46:09;100625.44;;;31.51;44.49
36798;BME280;22748;8.426;99.512;2023-01-01T08:48:39;100630.84;;;31.51;45.13
36798;BME280;22748;8.426;99.512;2023-01-01T08:51:09;100634.75;;;31.55;44.37
36798;BME280;22748;8.426;99.512;2023-01-01T08:53:42;100629.22;;;31.50;44.73
36798;BME280;22748;8.426;99.512;2023-01-01T08:56:12;100626.44;;;31.38;44.89
36798;BME280;22748;8.426;99.512;2023-01-01T08:58:42;100623.47;;;31.40;44.23
36798;BME280;22748;8.426;99.512;2023-01-01T09:01:12;100617.69;;;31.43;44.34
36798;BME280;22748;8.426;99.512;2023-01-01T09:03:41;100614.78;;;31.37;44.80
36798;BME280;22748;8.426;99.512;2023-01-01T09:09:32;100618.03;;;31.28;44.91
36798;BME280;22748;8.426;99.512;2023-01-01T09:12:02;100614.88;;;31.31;44.53
36798;BME280;22748;8.426;99.512;2023-01-01T09:14:55;100606.88;;;31.43;44.83
36798;BME280;22748;8.426;99.512;2023-01-01T09:17:49;100616.84;;;31.42;45.00
36798;BME280;22748;8.426;99.512;2023-01-01T09:20:20;100623.94;;;31.55;44.35
36798;BME280;22748;8.426;99.512;2023-01-01T09:22:50;100617.03;;;31.59;44.51
36798;BME280;22748;8.426;99.512;2023-01-01T09:25:21;100613.63;;;31.52;44.83
36798;BME280;22748;8.426;99.512;2023-01-01T09:27:57;100613.00;;;31.50;44.97
36798;BME280;22748;8.426;99.512;2023-01-01T09:30:27;100610.44;;;31.55;44.87
36798;BME280;22748;8.426;99.512;2023-01-01T09:32:58;100620.81;;;31.58;44.58
36798;BME280;22748;8.426;99.512;2023-01-01T09:35:29;100623.34;;;31.53;45.13
36798;BME280;22748;8.426;99.512;2023-01-01T09:38:00;100626.81;;;31.60;45.38
36798;BME280;22748;8.426;99.512;2023-01-01T09:40:31;100626.34;;;31.63;45.19
36798;BME280;22748;8.426;99.512;2023-01-01T09:43:13;100623.19;;;31.66;45.34
36798;BME280;22748;8.426;99.512;2023-01-01T09:45:54;100628.59;;;31.66;45.83
36798;BME280;22748;8.426;99.512;2023-01-01T09:48:25;100626.19;;;31.58;45.81
36798;BME280;22748;8.426;99.512;2023-01-01T09:50:57;100637.59;;;31.60;45.30
36798;BME280;22748;8.426;99.512;2023-01-01T09:53:31;100635.72;;;31.61;45.53
36798;BME280;22748;8.426;99.512;2023-01-01T09:56:05;100641.72;;;31.63;45.69
36798;BME280;22748;8.426;99.512;2023-01-01T09:58:36;100635.72;;;31.61;45.08
36798;BME280;22748;8.426;99.512;2023-01-01T10:01:12;100638.72;;;31.52;44.94
36798;BME280;22748;8.426;99.512;2023-01-01T10:03:47;100646.13;;;31.57;44.98
36798;BME280;22748;8.426;99.512;2023-01-01T10:06:22;100647.56;;;31.60;45.34
36798;BME280;22748;8.426;99.512;2023-01-01T10:09:04;100651.44;;;31.64;45.52
36798;BME280;22748;8.426;99.512;2023-01-01T12:01:47;100830.44;;;31.21;49.17
36798;BME280;22748;8.426;99.512;2023-01-01T12:04:20;100838.28;;;31.22;48.85
36798;BME280;22748;8.426;99.512;2023-01-01T12:07:18;100845.41;;;31.16;49.09
36798;BME280;22748;8.426;99.512;2023-01-01T12:09:54;100846.00;;;31.19;49.39
36798;BME280;22748;8.426;99.512;2023-01-01T12:12:31;100853.69;;;31.15;49.51
36798;BME280;22748;8.426;99.512;2023-01-01T12:15:05;100864.03;;;31.18;49.54
36798;BME280;22748;8.426;99.512;2023-01-01T12:21:25;100871.09;;;31.19;49.60
36798;BME280;22748;8.426;99.512;2023-01-01T12:23:56;100877.53;;;31.18;49.29
36798;BME280;22748;8.426;99.512;2023-01-01T12:26:30;100882.31;;;31.16;49.72
36798;BME280;22748;8.426;99.512;2023-01-01T12:29:16;100890.41;;;31.16;49.83
36798;BME280;22748;8.426;99.512;2023-01-01T12:31:56;100893.09;;;31.16;49.92
36798;BME280;22748;8.426;99.512;2023-01-01T12:34:37;100892.28;;;31.15;49.81
36798;BME280;22748;8.426;99.512;2023-01-01T12:37:18;100909.28;;;31.16;49.82
36798;BME280;22748;8.426;99.512;2023-01-01T12:43:01;100916.38;;;31.17;50.08
36798;BME280;22748;8.426;99.512;2023-01-01T12:48:47;100930.88;;;31.16;49.89
36798;BME280;22748;8.426;99.512;2023-01-01T12:51:31;100929.25;;;31.15;50.30
36798;BME280;22748;8.426;99.512;2023-01-01T12:54:38;100934.03;;;31.13;50.03
36798;BME280;22748;8.426;99.512;2023-01-01T12:57:19;100937.78;;;31.12;50.31
36798;BME280;22748;8.426;99.512;2023-01-01T12:59:53;100944.19;;;31.11;50.26
36798;BME280;22748;8.426;99.512;2023-01-01T13:02:27;100947.09;;;31.09;50.66
36798;BME280;22748;8.426;99.512;2023-01-01T13:05:01;100952.50;;;31.09;50.73
36798;BME280;22748;8.426;99.512;2023-01-01T13:07:37;100962.47;;;31.09;50.31
36798;BME280;22748;8.426;99.512;2023-01-01T13:10:23;100972.44;;;31.08;50.55
36798;BME280;22748;8.426;99.512;2023-01-01T13:12:55;100971.63;;;31.08;50.68
36798;BME280;22748;8.426;99.512;2023-01-01T13:15:43;100985.31;;;31.06;50.68
36798;BME280;22748;8.426;99.512;2023-01-01T13:18:31;100981.19;;;31.04;50.73
36798;BME280;22748;8.426;99.512;2023-01-01T13:21:04;100987.59;;;31.03;51.03
36798;BME280;22748;8.426;99.512;2023-01-01T13:23:46;100996.75;;;31.02;50.94
36798;BME280;22748;8.426;99.512;2023-01-01T13:26:35;100996.16;;;31.00;51.29
36798;BME280;22748;8.426;99.512;2023-01-01T13:29:32;101009.00;;;30.98;51.07
36798;BME280;22748;8.426;99.512;2023-01-01T13:32:06;101002.81;;;30.97;51.49
36798;BME280;22748;8.426;99.512;2023-01-01T13:37:29;101002.38;;;30.93;51.84
36798;BME280;22748;8.426;99.512;2023-01-01T13:40:00;101013.38;;;30.92;51.56
36798;BME280;22748;8.426;99.512;2023-01-01T13:43:03;101015.25;;;30.91;51.56
36798;BME280;22748;8.426;99.512;2023-01-01T13:45:33;101014.84;;;30.94;51.15
36798;BME280;22748;8.426;99.512;2023-01-01T13:48:15;101028.09;;;30.96;51.61
36798;BME280;22748;8.426;99.512;2023-01-01T13:50:55;101022.69;;;30.96;51.24
36798;BME280;22748;8.426;99.512;2023-01-01T13:53:49;101037.00;;;30.96;51.78
36798;BME280;22748;8.426;99.512;2023-01-01T13:56:35;101033.50;;;30.96;51.30
36798;BME280;22748;8.426;99.512;2023-01-01T13:59:32;101032.66;;;30.95;51.55
36798;BME280;22748;8.426;99.512;2023-01-01T14:02:18;101038.88;;;30.96;51.25
36798;BME280;22748;8.426;99.512;2023-01-01T14:04:54;101042.41;;;30.96;51.63
36798;BME280;22748;8.426;99.512;2023-01-01T14:07:32;101041.59;;;30.96;51.33
36798;BME280;22748;8.426;99.512;2023-01-01T14:10:20;101043.47;;;30.95;51.59
36798;BME280;22748;8.426;99.512;2023-01-01T14:12:51;101047.78;;;30.96;51.41
36798;BME280;22748;8.426;99.512;2023-01-01T14:15:28;101053.44;;;30.95;51.46
36798;BME280;22748;8.426;99.512;2023-01-01T14:18:00;101047.22;;;30.94;51.31
36798;BME280;22748;8.426;99.512;2023-01-01T14:20:35;101054.69;;;30.92;51.49
36798;BME280;22748;8.426;99.512;2023-01-01T14:23:11;101058.41;;;30.91;51.11
36798;BME280;22748;8.426;99.512;2023-01-01T14:25:44;101052.19;;;30.91;51.43
36798;BME280;22748;8.426;99.512;2023-01-01T14:28:20;101057.78;;;30.89;51.13
36798;BME280;22748;8.426;99.512;2023-01-01T14:30:54;101071.28;;;30.89;51.11
36798;BME280;22748;8.426;99.512;2023-01-01T14:33:29;101064.25;;;30.88;51.08
36798;BME280;22748;8.426;99.512;2023-01-01T14:36:03;101061.53;;;30.88;51.34
36798;BME280;22748;8.426;99.512;2023-01-01T14:38:43;101071.47;;;30.88;51.42
36798;BME280;22748;8.426;99.512;2023-01-01T14:41:18;101071.72;;;30.86;51.41
36798;BME280;22748;8.426;99.512;2023-01-01T14:43:54;101073.59;;;30.86;51.51
36798;BME280;22748;8.426;99.512;2023-01-01T14:46:27;101082.50;;;30.86;51.47
36798;BME280;22748;8.426;99.512;2023-01-01T14:49:01;101079.97;;;30.85;51.54
36798;BME280;22748;8.426;99.512;2023-01-01T14:51:32;101077.28;;;30.85;50.98
36798;BME280;22748;8.426;99.512;2023-01-01T14:54:03;101085.56;;;30.83;51.52
36798;BME280;22748;8.426;99.512;2023-01-01T14:56:36;101086.63;;;30.82;51.53
36798;BME280;22748;8.426;99.512;2023-01-01T14:59:10;101088.69;;;30.80;51.26
36798;BME280;22748;8.426;99.512;2023-01-01T15:01:45;101088.91;;;30.79;51.54
36798;BME280;22748;8.426;99.512;2023-01-01T15:04:39;101088.06;;;30.78;51.26
36798;BME280;22748;8.426;99.512;2023-01-01T15:07:19;101086.63;;;30.75;51.31
36798;BME280;22748;8.426;99.512;2023-01-01T15:09:52;101092.84;;;30.76;51.67
36798;BME280;22748;8.426;99.512;2023-01-01T15:12:23;101102.00;;;30.75;51.49
36798;BME280;22748;8.426;99.512;2023-01-01T15:14:54;101107.38;;;30.75;51.92
36798;BME280;22748;8.426;99.512;2023-01-01T15:17:26;101105.72;;;30.74;51.41
36798;BME280;22748;8.426;99.512;2023-01-01T15:20:03;101107.78;;;30.72;51.70
36798;BME280;22748;8.426;99.512;2023-01-01T15:22:34;101111.53;;;30.71;51.67
36798;BME280;22748;8.426;99.512;2023-01-01T15:25:11;101111.53;;;30.71;51.70
36798;BME280;22748;8.426;99.512;2023-01-01T15:27:42;101122.31;;;30.71;52.12
36798;BME280;22748;8.426;99.512;2023-01-01T15:30:24;101113.63;;;30.69;52.00
36798;BME280;22748;8.426;99.512;2023-01-01T15:32:56;101115.50;;;30.68;52.30
36798;BME280;22748;8.426;99.512;2023-01-01T15:35:34;101117.34;;;30.68;51.99
36798;BME280;22748;8.426;99.512;2023-01-01T15:38:11;101117.56;;;30.66;52.16
36798;BME280;22748;8.426;99.512;2023-01-01T15:40:45;101111.31;;;30.66;52.14
36798;BME280;22748;8.426;99.512;2023-01-01T15:43:20;101116.09;;;30.64;51.97
36798;BME280;22748;8.426;99.512;2023-01-01T15:45:54;101117.13;;;30.63;52.21
36798;BME280;22748;8.426;99.512;2023-01-01T15:48:30;101118.16;;;30.62;52.28
36798;BME280;22748;8.426;99.512;2023-01-01T15:51:13;101115.69;;;30.60;52.53
36798;BME280;22748;8.426;99.512;2023-01-01T15:53:49;101109.47;;;30.60;52.75
36798;BME280;22748;8.426;99.512;2023-01-01T15:56:22;101107.81;;;30.59;52.54
36798;BME280;22748;8.426;99.512;2023-01-01T15:58:55;101109.88;;;30.57;52.49
36798;BME280;22748;8.426;99.512;2023-01-01T16:01:28;101123.56;;;30.55;52.91
36798;BME280;22748;8.426;99.512;2023-01-01T16:04:14;101122.13;;;30.52;52.80
36798;BME280;22748;8.426;99.512;2023-01-01T16:06:47;101117.78;;;30.51;52.89
36798;BME280;22748;8.426;99.512;2023-01-01T16:09:20;101117.78;;;30.51;52.66
36798;BME280;22748;8.426;99.512;2023-01-01T16:11:52;101116.34;;;30.49;52.79
36798;BME280;22748;8.426;99.512;2023-01-01T16:14:22;101118.59;;;30.45;52.97
36798;BME280;22748;8.426;99.512;2023-01-01T16:16:55;101119.63;;;30.44;53.32